sensor_id;sensor_type;location;lat;lon;timestamp;temperature;humidity
5134;DHT22;2585;48.696;10.066;2022-09-29T00:00:49;4.90;95.60
5134;DHT22;2585;48.696;10.066;2022-09-29T00:03:17;4.80;95.60
5134;DHT22;2585;48.696;10.066;2022-09-29T00:05:52;4.80;95.60
5134;DHT22;2585;48.696;10.066;2022-09-29T00:08:20;4.80;95.60
5134;DHT22;2585;48.696;10.066;2022-09-29T00:10:47;4.70;95.60
5134;DHT22;2585;48.696;10.066;2022-09-29T00:13:15;4.70;95.60
5134;DHT22;2585;48.696;10.066;2022-09-29T00:15:42;4.70;95.60
5134;DHT22;2585;48.696;10.066;2022-09-29T00:18:09;4.80;95.60
5134;DHT22;2585;48.696;10.066;2022-09-29T00:20:40;4.80;95.60
5134;DHT22;2585;48.696;10.066;2022-09-29T00:23:07;4.80;95.60
5134;DHT22;2585;48.696;10.066;2022-09-29T00:25:34;4.80;95.60
5134;DHT22;2585;48.696;10.066;2022-09-29T00:28:01;4.70;95.60
5134;DHT22;2585;48.696;10.066;2022-09-29T00:30:28;4.70;95.60
5134;DHT22;2585;48.696;10.066;2022-09-29T00:32:54;4.60;95.50
5134;DHT22;2585;48.696;10.066;2022-09-29T00:35:21;4.50;95.50
5134;DHT22;2585;48.696;10.066;2022-09-29T00:37:48;4.50;95.50
5134;DHT22;2585;48.696;10.066;2022-09-29T00:40:15;4.40;95.50
5134;DHT22;2585;48.696;10.066;2022-09-29T00:42:42;4.40;95.50
5134;DHT22;2585;48.696;10.066;2022-09-29T00:45:20;4.40;95.50
5134;DHT22;2585;48.696;10.066;2022-09-29T00:48:02;4.40;95.50
5134;DHT22;2585;48.696;10.066;2022-09-29T00:50:43;4.40;95.50
5134;DHT22;2585;48.696;10.066;2022-09-29T00:53:11;4.40;95.50
5134;DHT22;2585;48.696;10.066;2022-09-29T00:55:51;4.50;95.50
5134;DHT22;2585;48.696;10.066;2022-09-29T00:58:55;4.40;95.50
5134;DHT22;2585;48.696;10.066;2022-09-29T01:01:27;4.50;95.50
5134;DHT22;2585;48.696;10.066;2022-09-29T01:03:58;4.50;95.50
5134;DHT22;2585;48.696;10.066;2022-09-29T01:06:35;4.50;95.50
5134;DHT22;2585;48.696;10.066;2022-09-29T01:09:16;4.50;95.50
5134;DHT22;2585;48.696;10.066;2022-09-29T01:11:44;4.60;95.50
5134;DHT22;2585;48.696;10.066;2022-09-29T01:14:11;4.50;95.50
5134;DHT22;2585;48.696;10.066;2022-09-29T01:16:38;4.60;95.50
5134;DHT22;2585;48.696;10.066;2022-09-29T01:19:15;4.60;95.50
5134;DHT22;2585;48.696;10.066;2022-09-29T01:27:50;4.70;95.50
5134;DHT22;2585;48.696;10.066;2022-09-29T01:32:06;4.70;95.60
5134;DHT22;2585;48.696;10.066;2022-09-29T01:40:15;4.70;95.60
5134;DHT22;2585;48.696;10.066;2022-09-29T01:45:28;4.70;95.60
5134;DHT22;2585;48.696;10.066;2022-09-29T01:48:02;4.70;95.60
5134;DHT22;2585;48.696;10.066;2022-09-29T01:50:38;4.70;95.60
5134;DHT22;2585;48.696;10.066;2022-09-29T01:53:18;4.70;95.60
5134;DHT22;2585;48.696;10.066;2022-09-29T01:55:50;4.70;95.60
5134;DHT22;2585;48.696;10.066;2022-09-29T01:58:46;4.60;95.50
5134;DHT22;2585;48.696;10.066;2022-09-29T02:01:16;4.60;95.50
5134;DHT22;2585;48.696;10.066;2022-09-29T02:04:01;4.60;95.50
5134;DHT22;2585;48.696;10.066;2022-09-29T02:06:36;4.60;95.50
5134;DHT22;2585;48.696;10.066;2022-09-29T02:09:10;4.60;95.50
5134;DHT22;2585;48.696;10.066;2022-09-29T02:11:40;4.70;95.60
5134;DHT22;2585;48.696;10.066;2022-09-29T02:14:11;4.70;95.60
5134;DHT22;2585;48.696;10.066;2022-09-29T02:16:44;4.80;95.60
5134;DHT22;2585;48.696;10.066;2022-09-29T02:19:20;4.80;95.60
5134;DHT22;2585;48.696;10.066;2022-09-29T02:21:48;4.80;95.60
5134;DHT22;2585;48.696;10.066;2022-09-29T02:24:17;4.80;95.60
5134;DHT22;2585;48.696;10.066;2022-09-29T02:26:44;4.90;95.60
5134;DHT22;2585;48.696;10.066;2022-09-29T02:29:12;4.90;95.60
5134;DHT22;2585;48.696;10.066;2022-09-29T02:31:40;4.80;95.60
5134;DHT22;2585;48.696;10.066;2022-09-29T02:34:09;4.60;95.50
5134;DHT22;2585;48.696;10.066;2022-09-29T02:36:42;4.70;95.60
5134;DHT22;2585;48.696;10.066;2022-09-29T02:44:53;4.80;95.60
5134;DHT22;2585;48.696;10.066;2022-09-29T02:47:36;4.80;95.60
5134;DHT22;2585;48.696;10.066;2022-09-29T02:53:07;4.80;95.60
5134;DHT22;2585;48.696;10.066;2022-09-29T02:58:29;4.90;95.60
5134;DHT22;2585;48.696;10.066;2022-09-29T03:00:58;4.90;95.60
5134;DHT22;2585;48.696;10.066;2022-09-29T03:03:25;4.90;95.60
5134;DHT22;2585;48.696;10.066;2022-09-29T03:05:52;4.90;95.60
5134;DHT22;2585;48.696;10.066;2022-09-29T03:08:19;4.90;95.60
5134;DHT22;2585;48.696;10.066;2022-09-29T03:10:46;4.80;95.60
5134;DHT22;2585;48.696;10.066;2022-09-29T03:13:13;4.90;95.60
5134;DHT22;2585;48.696;10.066;2022-09-29T03:15:39;4.90;95.60
5134;DHT22;2585;48.696;10.066;2022-09-29T03:18:06;4.90;95.60
5134;DHT22;2585;48.696;10.066;2022-09-29T03:20:35;4.80;95.60
5134;DHT22;2585;48.696;10.066;2022-09-29T03:23:02;4.80;95.60
5134;DHT22;2585;48.696;10.066;2022-09-29T03:25:29;4.80;95.60
5134;DHT22;2585;48.696;10.066;2022-09-29T03:27:56;4.70;95.60
5134;DHT22;2585;48.696;10.066;2022-09-29T03:30:22;4.70;95.60
5134;DHT22;2585;48.696;10.066;2022-09-29T03:32:49;4.70;95.60
5134;DHT22;2585;48.696;10.066;2022-09-29T03:35:16;4.70;95.60
5134;DHT22;2585;48.696;10.066;2022-09-29T03:37:43;4.70;95.60
5134;DHT22;2585;48.696;10.066;2022-09-29T03:40:10;4.70;95.60
5134;DHT22;2585;48.696;10.066;2022-09-29T03:42:37;4.70;95.60
5134;DHT22;2585;48.696;10.066;2022-09-29T03:45:04;4.70;95.60
5134;DHT22;2585;48.696;10.066;2022-09-29T03:47:31;4.70;95.60
5134;DHT22;2585;48.696;10.066;2022-09-29T03:49:57;4.70;95.60
5134;DHT22;2585;48.696;10.066;2022-09-29T03:52:24;4.60;95.50
5134;DHT22;2585;48.696;10.066;2022-09-29T03:54:51;4.60;95.50
5134;DHT22;2585;48.696;10.066;2022-09-29T03:57:18;4.60;95.50
5134;DHT22;2585;48.696;10.066;2022-09-29T03:59:44;4.60;95.50
5134;DHT22;2585;48.696;10.066;2022-09-29T04:02:12;4.70;95.60
5134;DHT22;2585;48.696;10.066;2022-09-29T04:04:39;4.70;95.60
5134;DHT22;2585;48.696;10.066;2022-09-29T04:07:05;4.70;95.60
5134;DHT22;2585;48.696;10.066;2022-09-29T04:09:32;4.70;95.60
5134;DHT22;2585;48.696;10.066;2022-09-29T04:11:59;4.70;95.60
5134;DHT22;2585;48.696;10.066;2022-09-29T04:14:26;4.70;95.60
5134;DHT22;2585;48.696;10.066;2022-09-29T04:16:53;4.80;95.60
5134;DHT22;2585;48.696;10.066;2022-09-29T04:19:19;4.80;95.60
5134;DHT22;2585;48.696;10.066;2022-09-29T04:21:46;4.80;95.60
5134;DHT22;2585;48.696;10.066;2022-09-29T04:24:13;4.80;95.60
5134;DHT22;2585;48.696;10.066;2022-09-29T04:26:40;4.70;95.60
5134;DHT22;2585;48.696;10.066;2022-09-29T04:29:07;4.80;95.60
5134;DHT22;2585;48.696;10.066;2022-09-29T04:31:34;4.80;95.60
5134;DHT22;2585;48.696;10.066;2022-09-29T04:34:00;4.90;95.60
5134;DHT22;2585;48.696;10.066;2022-09-29T04:36:27;4.90;95.60
5134;DHT22;2585;48.696;10.066;2022-09-29T04:38:54;4.80;95.60
5134;DHT22;2585;48.696;10.066;2022-09-29T04:41:21;4.80;95.60
5134;DHT22;2585;48.696;10.066;2022-09-29T04:43:47;4.80;95.60
5134;DHT22;2585;48.696;10.066;2022-09-29T04:46:14;4.80;95.60
5134;DHT22;2585;48.696;10.066;2022-09-29T04:48:41;4.80;95.60
5134;DHT22;2585;48.696;10.066;2022-09-29T04:51:08;4.80;95.60
5134;DHT22;2585;48.696;10.066;2022-09-29T04:53:36;4.90;95.60
5134;DHT22;2585;48.696;10.066;2022-09-29T04:56:07;4.90;95.60
5134;DHT22;2585;48.696;10.066;2022-09-29T04:58:34;5.00;95.70
5134;DHT22;2585;48.696;10.066;2022-09-29T05:01:05;5.00;95.70
5134;DHT22;2585;48.696;10.066;2022-09-29T05:03:32;5.00;95.70
5134;DHT22;2585;48.696;10.066;2022-09-29T05:05:59;5.00;95.70
5134;DHT22;2585;48.696;10.066;2022-09-29T05:08:26;5.00;95.70
5134;DHT22;2585;48.696;10.066;2022-09-29T05:10:52;4.90;95.60
5134;DHT22;2585;48.696;10.066;2022-09-29T05:13:19;4.90;95.60
5134;DHT22;2585;48.696;10.066;2022-09-29T05:15:46;5.00;95.70
5134;DHT22;2585;48.696;10.066;2022-09-29T05:18:12;5.00;95.70
5134;DHT22;2585;48.696;10.066;2022-09-29T05:20:39;5.00;95.70
5134;DHT22;2585;48.696;10.066;2022-09-29T05:23:20;5.00;95.70
5134;DHT22;2585;48.696;10.066;2022-09-29T05:25:47;5.00;95.70
5134;DHT22;2585;48.696;10.066;2022-09-29T05:28:14;5.00;95.70
5134;DHT22;2585;48.696;10.066;2022-09-29T05:30:41;5.00;95.70
5134;DHT22;2585;48.696;10.066;2022-09-29T05:33:08;5.00;95.70
5134;DHT22;2585;48.696;10.066;2022-09-29T05:35:35;5.00;95.70
5134;DHT22;2585;48.696;10.066;2022-09-29T05:38:02;5.00;95.70
5134;DHT22;2585;48.696;10.066;2022-09-29T05:40:29;5.00;95.70
5134;DHT22;2585;48.696;10.066;2022-09-29T05:42:57;5.10;95.70
5134;DHT22;2585;48.696;10.066;2022-09-29T05:45:25;5.00;95.70
5134;DHT22;2585;48.696;10.066;2022-09-29T05:47:51;5.10;95.70
5134;DHT22;2585;48.696;10.066;2022-09-29T05:50:19;5.00;95.70
5134;DHT22;2585;48.696;10.066;2022-09-29T05:52:46;5.00;95.70
5134;DHT22;2585;48.696;10.066;2022-09-29T05:55:15;5.00;95.70
5134;DHT22;2585;48.696;10.066;2022-09-29T05:57:41;5.10;95.70
5134;DHT22;2585;48.696;10.066;2022-09-29T06:00:08;5.20;95.70
5134;DHT22;2585;48.696;10.066;2022-09-29T06:02:35;5.30;95.70
5134;DHT22;2585;48.696;10.066;2022-09-29T06:05:02;5.30;95.70
5134;DHT22;2585;48.696;10.066;2022-09-29T06:07:29;5.40;95.80
5134;DHT22;2585;48.696;10.066;2022-09-29T06:09:56;5.40;95.80
5134;DHT22;2585;48.696;10.066;2022-09-29T06:12:22;5.40;95.80
5134;DHT22;2585;48.696;10.066;2022-09-29T06:14:49;5.40;95.80
5134;DHT22;2585;48.696;10.066;2022-09-29T06:17:16;5.40;95.80
5134;DHT22;2585;48.696;10.066;2022-09-29T06:19:42;5.50;95.80
5134;DHT22;2585;48.696;10.066;2022-09-29T06:22:10;5.50;95.80
5134;DHT22;2585;48.696;10.066;2022-09-29T06:24:37;5.50;95.80
5134;DHT22;2585;48.696;10.066;2022-09-29T06:27:04;5.50;95.80
5134;DHT22;2585;48.696;10.066;2022-09-29T06:29:30;5.40;95.80
5134;DHT22;2585;48.696;10.066;2022-09-29T06:31:57;5.60;95.80
5134;DHT22;2585;48.696;10.066;2022-09-29T06:34:24;5.60;95.80
5134;DHT22;2585;48.696;10.066;2022-09-29T06:36:51;5.70;95.80
5134;DHT22;2585;48.696;10.066;2022-09-29T06:39:36;5.60;95.80
5134;DHT22;2585;48.696;10.066;2022-09-29T06:42:04;5.60;95.80
5134;DHT22;2585;48.696;10.066;2022-09-29T06:44:31;5.60;95.80
5134;DHT22;2585;48.696;10.066;2022-09-29T06:46:58;5.60;95.80
5134;DHT22;2585;48.696;10.066;2022-09-29T06:49:25;5.80;95.90
5134;DHT22;2585;48.696;10.066;2022-09-29T06:51:51;5.80;95.90
5134;DHT22;2585;48.696;10.066;2022-09-29T06:54:20;5.80;95.90
5134;DHT22;2585;48.696;10.066;2022-09-29T06:56:52;5.80;95.90
5134;DHT22;2585;48.696;10.066;2022-09-29T06:59:19;5.90;95.90
5134;DHT22;2585;48.696;10.066;2022-09-29T07:01:46;6.00;95.90
5134;DHT22;2585;48.696;10.066;2022-09-29T07:04:17;6.10;95.90
5134;DHT22;2585;48.696;10.066;2022-09-29T07:06:45;6.20;91.30
5134;DHT22;2585;48.696;10.066;2022-09-29T07:09:12;6.20;91.30
5134;DHT22;2585;48.696;10.066;2022-09-29T07:11:46;6.30;91.30
5134;DHT22;2585;48.696;10.066;2022-09-29T07:14:14;6.50;91.40
5134;DHT22;2585;48.696;10.066;2022-09-29T07:16:42;6.50;91.40
5134;DHT22;2585;48.696;10.066;2022-09-29T07:19:09;6.50;91.40
5134;DHT22;2585;48.696;10.066;2022-09-29T07:21:36;6.60;91.40
5134;DHT22;2585;48.696;10.066;2022-09-29T07:24:03;6.60;91.40
5134;DHT22;2585;48.696;10.066;2022-09-29T07:26:30;6.80;91.40
5134;DHT22;2585;48.696;10.066;2022-09-29T07:28:57;6.70;91.40
5134;DHT22;2585;48.696;10.066;2022-09-29T07:31:24;6.90;91.40
5134;DHT22;2585;48.696;10.066;2022-09-29T07:33:51;7.00;91.50
5134;DHT22;2585;48.696;10.066;2022-09-29T07:36:19;7.10;91.50
5134;DHT22;2585;48.696;10.066;2022-09-29T07:38:48;7.00;91.50
5134;DHT22;2585;48.696;10.066;2022-09-29T07:41:16;7.10;91.50
5134;DHT22;2585;48.696;10.066;2022-09-29T07:43:43;7.20;91.50
5134;DHT22;2585;48.696;10.066;2022-09-29T07:46:10;7.20;91.50
5134;DHT22;2585;48.696;10.066;2022-09-29T07:48:38;7.40;91.50
5134;DHT22;2585;48.696;10.066;2022-09-29T07:51:07;7.50;91.50
5134;DHT22;2585;48.696;10.066;2022-09-29T07:53:36;7.70;91.60
5134;DHT22;2585;48.696;10.066;2022-09-29T07:56:08;7.70;91.50
5134;DHT22;2585;48.696;10.066;2022-09-29T07:58:36;7.90;91.60
5134;DHT22;2585;48.696;10.066;2022-09-29T08:01:05;8.20;91.60
5134;DHT22;2585;48.696;10.066;2022-09-29T08:03:36;8.00;91.50
5134;DHT22;2585;48.696;10.066;2022-09-29T08:06:05;8.00;91.50
5134;DHT22;2585;48.696;10.066;2022-09-29T08:08:34;8.10;91.50
5134;DHT22;2585;48.696;10.066;2022-09-29T08:11:04;8.20;91.40
5134;DHT22;2585;48.696;10.066;2022-09-29T08:13:32;8.40;91.50
5134;DHT22;2585;48.696;10.066;2022-09-29T08:16:01;8.60;91.50
5134;DHT22;2585;48.696;10.066;2022-09-29T08:18:29;8.60;91.30
5134;DHT22;2585;48.696;10.066;2022-09-29T08:20:57;8.50;91.20
5134;DHT22;2585;48.696;10.066;2022-09-29T08:23:29;8.70;91.20
5134;DHT22;2585;48.696;10.066;2022-09-29T08:28:33;8.40;91.00
5134;DHT22;2585;48.696;10.066;2022-09-29T08:31:12;8.50;91.00
5134;DHT22;2585;48.696;10.066;2022-09-29T08:33:40;8.60;91.10
5134;DHT22;2585;48.696;10.066;2022-09-29T08:36:07;8.80;91.00
5134;DHT22;2585;48.696;10.066;2022-09-29T08:38:44;9.00;91.20
5134;DHT22;2585;48.696;10.066;2022-09-29T08:44:31;9.10;90.60
5134;DHT22;2585;48.696;10.066;2022-09-29T08:47:26;9.20;90.40
5134;DHT22;2585;48.696;10.066;2022-09-29T08:50:27;9.30;88.90
5134;DHT22;2585;48.696;10.066;2022-09-29T08:53:10;9.30;88.00
5134;DHT22;2585;48.696;10.066;2022-09-29T08:56:02;9.40;85.20
5134;DHT22;2585;48.696;10.066;2022-09-29T08:58:30;9.40;85.80
5134;DHT22;2585;48.696;10.066;2022-09-29T09:17:46;10.00;78.70
5134;DHT22;2585;48.696;10.066;2022-09-29T09:25:39;10.00;67.70
5134;DHT22;2585;48.696;10.066;2022-09-29T09:31:07;10.20;63.20
5134;DHT22;2585;48.696;10.066;2022-09-29T09:33:38;10.40;60.10
5134;DHT22;2585;48.696;10.066;2022-09-29T09:36:28;10.20;39.60
5134;DHT22;2585;48.696;10.066;2022-09-29T09:41:31;10.20;45.70
5134;DHT22;2585;48.696;10.066;2022-09-29T09:44:13;10.20;44.30
5134;DHT22;2585;48.696;10.066;2022-09-29T09:49:31;10.20;28.70
5134;DHT22;2585;48.696;10.066;2022-09-29T09:55:04;10.20;23.70
5134;DHT22;2585;48.696;10.066;2022-09-29T10:00:50;10.50;13.40
5134;DHT22;2585;48.696;10.066;2022-09-29T10:03:18;10.60;10.70
5134;DHT22;2585;48.696;10.066;2022-09-29T10:05:47;10.70;8.20
5134;DHT22;2585;48.696;10.066;2022-09-29T10:10:52;11.10;6.30
5134;DHT22;2585;48.696;10.066;2022-09-29T10:13:27;11.10;2.70
5134;DHT22;2585;48.696;10.066;2022-09-29T10:18:45;11.30;1.00
5134;DHT22;2585;48.696;10.066;2022-09-29T10:21:42;11.20;1.00
5134;DHT22;2585;48.696;10.066;2022-09-29T10:24:26;11.50;1.00
5134;DHT22;2585;48.696;10.066;2022-09-29T10:26:56;11.80;1.00
5134;DHT22;2585;48.696;10.066;2022-09-29T10:29:30;11.60;1.00
5134;DHT22;2585;48.696;10.066;2022-09-29T10:34:33;11.20;1.00
5134;DHT22;2585;48.696;10.066;2022-09-29T10:37:04;11.40;1.00
5134;DHT22;2585;48.696;10.066;2022-09-29T10:42:26;11.40;1.00
5134;DHT22;2585;48.696;10.066;2022-09-29T10:45:13;11.60;1.00
5134;DHT22;2585;48.696;10.066;2022-09-29T10:47:44;11.80;1.00
5134;DHT22;2585;48.696;10.066;2022-09-29T10:50:18;11.90;1.00
5134;DHT22;2585;48.696;10.066;2022-09-29T10:52:52;12.20;1.00
5134;DHT22;2585;48.696;10.066;2022-09-29T10:55:26;12.40;1.00
5134;DHT22;2585;48.696;10.066;2022-09-29T10:57:56;12.70;1.00
5134;DHT22;2585;48.696;10.066;2022-09-29T11:00:30;12.50;1.00
5134;DHT22;2585;48.696;10.066;2022-09-29T11:05:30;12.00;1.00
5134;DHT22;2585;48.696;10.066;2022-09-29T11:07:57;12.00;1.00
5134;DHT22;2585;48.696;10.066;2022-09-29T11:12:57;12.10;1.00
5134;DHT22;2585;48.696;10.066;2022-09-29T11:15:28;12.30;1.00
5134;DHT22;2585;48.696;10.066;2022-09-29T11:17:55;12.30;1.00
5134;DHT22;2585;48.696;10.066;2022-09-29T11:20:27;12.60;1.00
5134;DHT22;2585;48.696;10.066;2022-09-29T11:26:18;12.60;1.00
5134;DHT22;2585;48.696;10.066;2022-09-29T11:35:16;13.40;1.00
5134;DHT22;2585;48.696;10.066;2022-09-29T11:40:11;13.70;1.00
5134;DHT22;2585;48.696;10.066;2022-09-29T11:43:17;13.80;1.00
5134;DHT22;2585;48.696;10.066;2022-09-29T11:46:21;14.10;1.00
5134;DHT22;2585;48.696;10.066;2022-09-29T11:56:50;13.40;1.00
5134;DHT22;2585;48.696;10.066;2022-09-29T11:59:47;13.60;1.00
5134;DHT22;2585;48.696;10.066;2022-09-29T12:02:37;13.70;1.00
5134;DHT22;2585;48.696;10.066;2022-09-29T12:16:31;13.70;1.00
5134;DHT22;2585;48.696;10.066;2022-09-29T12:19:14;14.00;1.00
5134;DHT22;2585;48.696;10.066;2022-09-29T12:21:49;14.40;1.00
5134;DHT22;2585;48.696;10.066;2022-09-29T12:24:39;14.50;1.00
5134;DHT22;2585;48.696;10.066;2022-09-29T12:29:47;14.40;1.00
5134;DHT22;2585;48.696;10.066;2022-09-29T12:32:49;14.40;1.00
5134;DHT22;2585;48.696;10.066;2022-09-29T12:35:22;14.50;1.00
5134;DHT22;2585;48.696;10.066;2022-09-29T12:38:11;14.70;1.00
5134;DHT22;2585;48.696;10.066;2022-09-29T12:40:51;14.50;1.00
5134;DHT22;2585;48.696;10.066;2022-09-29T12:43:34;14.40;1.00
5134;DHT22;2585;48.696;10.066;2022-09-29T12:49:25;13.80;1.00
5134;DHT22;2585;48.696;10.066;2022-09-29T12:51:51;13.70;1.00
5134;DHT22;2585;48.696;10.066;2022-09-29T12:59:36;13.40;1.00
5134;DHT22;2585;48.696;10.066;2022-09-29T13:02:27;13.00;1.00
5134;DHT22;2585;48.696;10.066;2022-09-29T13:10:50;12.30;1.00
5134;DHT22;2585;48.696;10.066;2022-09-29T13:22:08;11.50;1.00
5134;DHT22;2585;48.696;10.066;2022-09-29T13:24:53;11.40;1.00
5134;DHT22;2585;48.696;10.066;2022-09-29T13:32:28;11.30;1.00
5134;DHT22;2585;48.696;10.066;2022-09-29T13:35:00;11.20;1.00
5134;DHT22;2585;48.696;10.066;2022-09-29T13:37:46;11.30;1.00
5134;DHT22;2585;48.696;10.066;2022-09-29T13:40:24;11.50;1.00
5134;DHT22;2585;48.696;10.066;2022-09-29T13:43:01;11.50;1.00
5134;DHT22;2585;48.696;10.066;2022-09-29T13:50:49;11.60;1.00
5134;DHT22;2585;48.696;10.066;2022-09-29T13:58:28;11.70;1.00
5134;DHT22;2585;48.696;10.066;2022-09-29T14:00:58;11.90;1.00
5134;DHT22;2585;48.696;10.066;2022-09-29T14:03:42;12.00;1.00
5134;DHT22;2585;48.696;10.066;2022-09-29T14:06:22;12.30;1.00
5134;DHT22;2585;48.696;10.066;2022-09-29T14:09:13;12.70;1.00
5134;DHT22;2585;48.696;10.066;2022-09-29T14:11:50;12.80;1.00
5134;DHT22;2585;48.696;10.066;2022-09-29T14:14:22;13.20;1.00
5134;DHT22;2585;48.696;10.066;2022-09-29T14:17:20;13.40;1.00
5134;DHT22;2585;48.696;10.066;2022-09-29T14:27:42;13.40;1.00
5134;DHT22;2585;48.696;10.066;2022-09-29T14:30:20;13.30;1.00
5134;DHT22;2585;48.696;10.066;2022-09-29T14:38:39;13.60;1.00
5134;DHT22;2585;48.696;10.066;2022-09-29T14:43:36;13.60;1.00
5134;DHT22;2585;48.696;10.066;2022-09-29T14:55:36;12.90;1.00
5134;DHT22;2585;48.696;10.066;2022-09-29T15:03:46;12.60;1.00
5134;DHT22;2585;48.696;10.066;2022-09-29T15:06:27;12.60;1.00
5134;DHT22;2585;48.696;10.066;2022-09-29T15:09:10;12.40;1.00
5134;DHT22;2585;48.696;10.066;2022-09-29T15:11:53;12.30;1.00
5134;DHT22;2585;48.696;10.066;2022-09-29T15:25:07;12.30;1.00
5134;DHT22;2585;48.696;10.066;2022-09-29T15:27:38;12.20;1.00
5134;DHT22;2585;48.696;10.066;2022-09-29T15:30:13;12.10;1.00
5134;DHT22;2585;48.696;10.066;2022-09-29T15:32:41;12.10;1.00
5134;DHT22;2585;48.696;10.066;2022-09-29T15:35:15;12.10;1.00
5134;DHT22;2585;48.696;10.066;2022-09-29T15:40:20;12.00;1.00
5134;DHT22;2585;48.696;10.066;2022-09-29T15:42:48;12.00;1.00
5134;DHT22;2585;48.696;10.066;2022-09-29T15:45:29;11.90;1.00
5134;DHT22;2585;48.696;10.066;2022-09-29T15:48:03;11.80;1.00
5134;DHT22;2585;48.696;10.066;2022-09-29T15:50:33;11.70;1.00
5134;DHT22;2585;48.696;10.066;2022-09-29T15:53:08;11.70;1.00
5134;DHT22;2585;48.696;10.066;2022-09-29T15:55:35;11.70;1.00
5134;DHT22;2585;48.696;10.066;2022-09-29T16:01:04;11.60;1.00
5134;DHT22;2585;48.696;10.066;2022-09-29T16:03:54;11.50;1.00
5134;DHT22;2585;48.696;10.066;2022-09-29T16:06:31;11.50;1.00
5134;DHT22;2585;48.696;10.066;2022-09-29T16:09:01;11.60;1.00
5134;DHT22;2585;48.696;10.066;2022-09-29T16:11:35;11.60;1.00
5134;DHT22;2585;48.696;10.066;2022-09-29T16:14:10;11.50;1.00
5134;DHT22;2585;48.696;10.066;2022-09-29T16:16:43;11.40;1.00
5134;DHT22;2585;48.696;10.066;2022-09-29T16:19:26;11.40;1.00
5134;DHT22;2585;48.696;10.066;2022-09-29T16:22:00;11.40;1.00
5134;DHT22;2585;48.696;10.066;2022-09-29T16:24:31;11.30;1.00
5134;DHT22;2585;48.696;10.066;2022-09-29T16:26:58;11.30;1.00
5134;DHT22;2585;48.696;10.066;2022-09-29T16:29:33;11.30;1.00
5134;DHT22;2585;48.696;10.066;2022-09-29T16:38:18;11.10;1.00
5134;DHT22;2585;48.696;10.066;2022-09-29T16:40:45;11.00;1.00
5134;DHT22;2585;48.696;10.066;2022-09-29T16:43:20;11.00;1.00
5134;DHT22;2585;48.696;10.066;2022-09-29T16:45:50;10.90;2.80
5134;DHT22;2585;48.696;10.066;2022-09-29T16:48:18;10.90;4.00
5134;DHT22;2585;48.696;10.066;2022-09-29T16:50:47;10.80;8.30
5134;DHT22;2585;48.696;10.066;2022-09-29T16:53:28;10.80;12.90
5134;DHT22;2585;48.696;10.066;2022-09-29T16:56:00;10.70;16.60
5134;DHT22;2585;48.696;10.066;2022-09-29T16:58:29;10.80;19.10
5134;DHT22;2585;48.696;10.066;2022-09-29T17:00:56;10.70;17.90
5134;DHT22;2585;48.696;10.066;2022-09-29T17:03:23;10.60;21.70
5134;DHT22;2585;48.696;10.066;2022-09-29T17:05:50;10.60;24.20
5134;DHT22;2585;48.696;10.066;2022-09-29T17:08:21;10.50;33.40
5134;DHT22;2585;48.696;10.066;2022-09-29T17:10:53;10.40;38.80
5134;DHT22;2585;48.696;10.066;2022-09-29T17:13:20;10.30;43.40
5134;DHT22;2585;48.696;10.066;2022-09-29T17:15:50;10.30;46.30
5134;DHT22;2585;48.696;10.066;2022-09-29T17:18:19;10.10;48.00
5134;DHT22;2585;48.696;10.066;2022-09-29T17:20:46;10.00;63.10
5134;DHT22;2585;48.696;10.066;2022-09-29T17:23:13;9.90;63.80
5134;DHT22;2585;48.696;10.066;2022-09-29T17:25:42;9.90;65.80
5134;DHT22;2585;48.696;10.066;2022-09-29T17:28:20;9.80;67.60
5134;DHT22;2585;48.696;10.066;2022-09-29T17:30:50;9.70;70.30
5134;DHT22;2585;48.696;10.066;2022-09-29T17:33:18;9.70;74.20
5134;DHT22;2585;48.696;10.066;2022-09-29T17:35:47;9.80;75.80
5134;DHT22;2585;48.696;10.066;2022-09-29T17:38:20;9.70;77.30
5134;DHT22;2585;48.696;10.066;2022-09-29T17:41:04;9.70;77.30
5134;DHT22;2585;48.696;10.066;2022-09-29T17:43:32;9.60;78.80
5134;DHT22;2585;48.696;10.066;2022-09-29T17:46:00;9.50;80.40
5134;DHT22;2585;48.696;10.066;2022-09-29T17:48:28;9.50;82.60
5134;DHT22;2585;48.696;10.066;2022-09-29T17:50:55;9.30;83.20
5134;DHT22;2585;48.696;10.066;2022-09-29T17:53:24;9.30;85.10
5134;DHT22;2585;48.696;10.066;2022-09-29T17:55:53;9.20;85.50
5134;DHT22;2585;48.696;10.066;2022-09-29T17:58:22;9.10;86.80
5134;DHT22;2585;48.696;10.066;2022-09-29T18:00:51;9.10;87.80
5134;DHT22;2585;48.696;10.066;2022-09-29T18:03:19;9.10;88.50
5134;DHT22;2585;48.696;10.066;2022-09-29T18:05:52;9.10;89.00
5134;DHT22;2585;48.696;10.066;2022-09-29T18:08:23;9.10;89.40
5134;DHT22;2585;48.696;10.066;2022-09-29T18:10:56;9.10;90.10
5134;DHT22;2585;48.696;10.066;2022-09-29T18:13:25;9.10;90.20
5134;DHT22;2585;48.696;10.066;2022-09-29T18:16:02;9.10;90.30
5134;DHT22;2585;48.696;10.066;2022-09-29T18:18:29;9.00;90.20
5134;DHT22;2585;48.696;10.066;2022-09-29T18:20:56;9.00;90.30
5134;DHT22;2585;48.696;10.066;2022-09-29T18:23:23;8.90;90.40
5134;DHT22;2585;48.696;10.066;2022-09-29T18:25:51;8.90;90.60
5134;DHT22;2585;48.696;10.066;2022-09-29T18:28:19;8.90;90.80
5134;DHT22;2585;48.696;10.066;2022-09-29T18:30:48;9.00;91.00
5134;DHT22;2585;48.696;10.066;2022-09-29T18:33:17;8.90;91.00
5134;DHT22;2585;48.696;10.066;2022-09-29T18:35:51;8.90;91.00
5134;DHT22;2585;48.696;10.066;2022-09-29T18:38:18;8.90;91.10
5134;DHT22;2585;48.696;10.066;2022-09-29T18:40:45;8.80;91.10
5134;DHT22;2585;48.696;10.066;2022-09-29T18:43:13;8.80;91.20
5134;DHT22;2585;48.696;10.066;2022-09-29T18:45:42;8.70;91.20
5134;DHT22;2585;48.696;10.066;2022-09-29T18:48:11;8.70;91.20
5134;DHT22;2585;48.696;10.066;2022-09-29T18:50:49;8.70;91.10
5134;DHT22;2585;48.696;10.066;2022-09-29T18:53:18;8.60;91.20
5134;DHT22;2585;48.696;10.066;2022-09-29T18:55:48;8.60;91.20
5134;DHT22;2585;48.696;10.066;2022-09-29T18:58:18;8.60;91.20
5134;DHT22;2585;48.696;10.066;2022-09-29T19:00:52;8.50;91.20
5134;DHT22;2585;48.696;10.066;2022-09-29T19:03:25;8.50;91.20
5134;DHT22;2585;48.696;10.066;2022-09-29T19:05:53;8.40;91.20
5134;DHT22;2585;48.696;10.066;2022-09-29T19:08:20;8.30;91.20
5134;DHT22;2585;48.696;10.066;2022-09-29T19:10:49;8.30;91.20
5134;DHT22;2585;48.696;10.066;2022-09-29T19:13:16;8.30;91.20
5134;DHT22;2585;48.696;10.066;2022-09-29T19:15:44;8.20;91.10
5134;DHT22;2585;48.696;10.066;2022-09-29T19:18:16;8.10;91.10
5134;DHT22;2585;48.696;10.066;2022-09-29T19:20:43;8.00;91.10
5134;DHT22;2585;48.696;10.066;2022-09-29T19:23:10;8.00;91.20
5134;DHT22;2585;48.696;10.066;2022-09-29T19:25:40;8.00;91.20
5134;DHT22;2585;48.696;10.066;2022-09-29T19:28:07;7.90;91.20
5134;DHT22;2585;48.696;10.066;2022-09-29T19:30:36;7.90;91.20
5134;DHT22;2585;48.696;10.066;2022-09-29T19:33:05;7.90;91.20
5134;DHT22;2585;48.696;10.066;2022-09-29T19:35:33;7.80;91.20
5134;DHT22;2585;48.696;10.066;2022-09-29T19:38:01;7.70;91.10
5134;DHT22;2585;48.696;10.066;2022-09-29T19:40:32;7.70;91.20
5134;DHT22;2585;48.696;10.066;2022-09-29T19:43:00;7.70;91.20
5134;DHT22;2585;48.696;10.066;2022-09-29T19:45:35;7.60;91.20
5134;DHT22;2585;48.696;10.066;2022-09-29T19:48:07;7.60;91.20
5134;DHT22;2585;48.696;10.066;2022-09-29T19:50:34;7.60;91.20
5134;DHT22;2585;48.696;10.066;2022-09-29T19:53:19;7.50;91.20
5134;DHT22;2585;48.696;10.066;2022-09-29T19:55:46;7.50;91.20
5134;DHT22;2585;48.696;10.066;2022-09-29T19:58:13;7.50;91.20